createdAt,value
2023-01-18T00:01:38.316Z,82.71
2023-01-18T00:04:04.675Z,82.50
2023-01-18T00:06:31.101Z,81.83
2023-01-18T00:08:57.450Z,81.29
2023-01-18T00:11:23.784Z,81.35
2023-01-18T00:13:50.146Z,80.83
2023-01-18T00:16:16.620Z,81.18
2023-01-18T00:18:43.018Z,81.71
2023-01-18T00:21:09.395Z,82.38
2023-01-18T00:23:35.713Z,82.57
2023-01-18T00:26:02.052Z,81.76
2023-01-18T00:28:28.370Z,80.88
2023-01-18T00:30:54.686Z,80.10
2023-01-18T00:33:21.010Z,80.34
2023-01-18T00:35:47.310Z,81.62
2023-01-18T00:38:13.967Z,81.61
2023-01-18T00:40:40.301Z,80.99
2023-01-18T00:43:39.244Z,80.70
2023-01-18T00:46:05.581Z,80.05
2023-01-18T00:48:31.922Z,79.25
2023-01-18T00:50:58.261Z,79.53
2023-01-18T00:53:24.571Z,79.23
2023-01-18T00:55:50.952Z,79.18
2023-01-18T00:58:17.291Z,79.06
2023-01-18T01:00:43.647Z,78.18
2023-01-18T01:03:10.081Z,77.92
2023-01-18T01:05:55.392Z,78.25
2023-01-18T01:08:23.634Z,77.66
2023-01-18T01:10:49.946Z,78.05
2023-01-18T01:13:35.143Z,77.96
2023-01-18T01:16:19.965Z,78.49
2023-01-18T01:19:04.878Z,78.41
2023-01-18T01:21:49.823Z,78.31
2023-01-18T01:24:34.749Z,78.74
2023-01-18T01:27:01.070Z,79.06
2023-01-18T01:29:27.403Z,78.82
2023-01-18T01:31:53.733Z,78.45
2023-01-18T01:34:20.112Z,79.93
2023-01-18T01:36:46.414Z,80.23
2023-01-18T01:39:13.336Z,80.60
2023-01-18T01:41:39.664Z,81.22
2023-01-18T01:44:06.494Z,82.18
2023-01-18T01:46:32.839Z,82.33
2023-01-18T01:48:59.142Z,82.58
2023-01-18T01:51:25.480Z,83.67
2023-01-18T01:53:51.801Z,82.92
2023-01-18T01:56:18.117Z,82.42
2023-01-18T01:58:44.432Z,82.67
2023-01-18T02:01:10.788Z,82.10
2023-01-18T02:03:37.127Z,82.28
2023-01-18T02:06:03.451Z,81.55
2023-01-18T02:08:29.867Z,81.05
2023-01-18T02:10:56.204Z,79.47
2023-01-18T02:13:22.636Z,79.84
2023-01-18T02:15:48.953Z,80.08
2023-01-18T02:18:15.303Z,80.39
2023-01-18T02:20:41.611Z,79.90
2023-01-18T02:23:07.933Z,80.56
2023-01-18T02:25:34.265Z,80.66
2023-01-18T02:28:00.573Z,80.89
2023-01-18T02:30:26.893Z,80.66
2023-01-18T02:32:53.197Z,80.38
2023-01-18T02:35:19.493Z,80.37
2023-01-18T02:37:45.844Z,79.83
2023-01-18T02:40:12.189Z,79.87
2023-01-18T02:42:57.683Z,80.06
2023-01-18T02:45:42.886Z,80.06
2023-01-18T02:48:09.191Z,80.37
2023-01-18T02:50:35.503Z,81.29
2023-01-18T02:53:01.816Z,82.23
2023-01-18T02:55:28.179Z,83.02
2023-01-18T02:57:54.488Z,82.27
2023-01-18T03:00:23.458Z,82.46
2023-01-18T03:02:49.819Z,82.28
2023-01-18T03:05:16.196Z,83.60
2023-01-18T03:07:42.500Z,85.05
2023-01-18T03:10:08.810Z,85.35
2023-01-18T03:12:46.250Z,85.40
2023-01-18T03:15:13.149Z,84.57
2023-01-18T03:17:39.516Z,85.07
2023-01-18T03:20:09.119Z,83.93
2023-01-18T03:22:54.657Z,83.85
2023-01-18T03:25:21.040Z,82.84
2023-01-18T03:28:06.331Z,82.33
2023-01-18T03:30:51.298Z,82.76
2023-01-18T03:33:36.559Z,83.22
2023-01-18T03:36:02.872Z,83.80
2023-01-18T03:38:29.176Z,84.11
2023-01-18T03:40:55.534Z,83.85
2023-01-18T03:43:21.848Z,84.05
2023-01-18T03:45:48.242Z,85.33
2023-01-18T03:48:14.563Z,84.80
2023-01-18T03:50:40.893Z,85.96
2023-01-18T03:53:07.228Z,84.92
2023-01-18T03:55:33.534Z,84.42
2023-01-18T03:57:59.869Z,84.57
2023-01-18T04:00:26.722Z,85.73
2023-01-18T04:02:53.134Z,85.99
2023-01-18T04:05:19.561Z,85.78
2023-01-18T04:07:45.879Z,86.41
2023-01-18T04:10:12.212Z,86.24
2023-01-18T04:12:38.509Z,86.30
2023-01-18T04:15:04.849Z,87.16
2023-01-18T04:17:31.153Z,87.91
2023-01-18T04:19:57.566Z,88.90
2023-01-18T04:22:23.977Z,88.89
2023-01-18T04:24:50.276Z,89.62
2023-01-18T04:27:16.622Z,92.66
2023-01-18T04:29:42.940Z,93.21
2023-01-18T04:32:09.252Z,94.48
2023-01-18T04:34:35.600Z,95.74
2023-01-18T04:37:01.917Z,95.51
2023-01-18T04:39:28.233Z,95.62
2023-01-18T04:41:57.041Z,98.38
2023-01-18T04:44:23.548Z,100.00
2023-01-18T04:46:51.123Z,100.00
2023-01-18T04:49:17.659Z,100.00
2023-01-18T04:51:44.019Z,100.00
2023-01-18T04:54:10.331Z,100.00
2023-01-18T04:56:36.709Z,100.00
2023-01-18T04:59:03.084Z,100.00
2023-01-18T05:01:29.838Z,100.00
2023-01-18T05:03:56.268Z,100.00
2023-01-18T05:06:22.699Z,100.00
2023-01-18T05:08:49.009Z,100.00
2023-01-18T05:11:15.330Z,100.00
2023-01-18T05:13:41.648Z,100.00
2023-01-18T05:16:08.156Z,100.00
2023-01-18T05:18:34.585Z,100.00
2023-01-18T05:21:00.945Z,100.00
2023-01-18T05:23:27.277Z,100.00
2023-01-18T05:25:53.985Z,100.00
2023-01-18T05:28:20.501Z,100.00
2023-01-18T05:30:49.370Z,100.00
2023-01-18T05:33:15.678Z,100.00
2023-01-18T05:35:41.983Z,100.00
2023-01-18T05:38:08.718Z,100.00
2023-01-18T05:40:35.027Z,100.00
2023-01-18T05:43:01.568Z,100.00
2023-01-18T05:45:28.016Z,100.00
2023-01-18T05:47:54.353Z,100.00
2023-01-18T05:50:20.692Z,100.00
2023-01-18T05:52:47.025Z,100.00
2023-01-18T05:55:13.696Z,100.00
2023-01-18T05:57:40.077Z,100.00
2023-01-18T06:00:06.434Z,100.00
2023-01-18T06:02:32.737Z,100.00
2023-01-18T06:04:59.040Z,100.00
2023-01-18T06:07:25.350Z,100.00
2023-01-18T06:09:51.744Z,100.00
2023-01-18T06:12:18.061Z,100.00
2023-01-18T06:14:44.491Z,100.00
2023-01-18T06:17:10.840Z,100.00
2023-01-18T06:19:37.219Z,100.00
2023-01-18T06:22:03.552Z,100.00
2023-01-18T06:24:29.900Z,100.00
2023-01-18T06:26:57.474Z,100.00
2023-01-18T06:29:23.792Z,100.00
2023-01-18T06:31:50.161Z,100.00
2023-01-18T06:34:16.482Z,100.00
2023-01-18T06:36:45.258Z,100.00
2023-01-18T06:39:11.583Z,100.00
2023-01-18T06:41:38.029Z,100.00
2023-01-18T06:44:04.350Z,100.00
2023-01-18T06:46:30.738Z,100.00
2023-01-18T06:48:57.049Z,100.00
2023-01-18T06:51:23.464Z,100.00
2023-01-18T06:53:50.209Z,100.00
2023-01-18T06:56:16.539Z,100.00
2023-01-18T06:58:42.905Z,100.00
2023-01-18T07:01:09.349Z,100.00
2023-01-18T07:03:35.716Z,100.00
2023-01-18T07:06:02.120Z,100.00
2023-01-18T07:08:28.514Z,100.00
2023-01-18T07:10:55.227Z,100.00
2023-01-18T07:13:21.690Z,100.00
2023-01-18T07:15:48.024Z,100.00
2023-01-18T07:18:15.493Z,100.00
2023-01-18T07:20:41.842Z,100.00
2023-01-18T07:23:08.238Z,100.00
2023-01-18T07:25:34.682Z,100.00
2023-01-18T07:28:01.048Z,100.00
2023-01-18T07:30:27.365Z,100.00
2023-01-18T07:32:53.755Z,100.00
2023-01-18T07:35:22.183Z,100.00
2023-01-18T07:37:48.601Z,100.00
2023-01-18T07:40:15.576Z,100.00
2023-01-18T07:42:41.910Z,100.00
2023-01-18T07:45:09.595Z,100.00
2023-01-18T07:47:35.972Z,100.00
2023-01-18T07:50:02.272Z,100.00
2023-01-18T07:52:28.663Z,100.00
2023-01-18T07:54:54.982Z,100.00
2023-01-18T07:57:21.332Z,100.00
2023-01-18T07:59:47.641Z,100.00
2023-01-18T08:02:14.620Z,100.00
2023-01-18T08:04:41.994Z,100.00
2023-01-18T08:07:08.578Z,100.00
2023-01-18T08:09:34.895Z,100.00
2023-01-18T08:12:01.249Z,100.00
2023-01-18T08:14:27.586Z,100.00
2023-01-18T08:16:53.898Z,100.00
2023-01-18T08:19:20.232Z,100.00
2023-01-18T08:21:46.530Z,100.00
2023-01-18T08:24:13.773Z,100.00
2023-01-18T08:26:40.125Z,100.00
2023-01-18T08:29:06.610Z,100.00
2023-01-18T08:31:32.987Z,100.00
2023-01-18T08:33:59.367Z,100.00
2023-01-18T08:36:25.712Z,100.00
2023-01-18T08:38:52.110Z,100.00
2023-01-18T08:41:18.469Z,100.00
2023-01-18T08:43:47.575Z,100.00
2023-01-18T08:46:13.994Z,100.00
2023-01-18T08:48:40.341Z,100.00
2023-01-18T08:51:06.673Z,100.00
2023-01-18T08:53:33.024Z,100.00
2023-01-18T08:55:59.392Z,100.00
2023-01-18T08:58:25.806Z,100.00
2023-01-18T09:00:53.631Z,100.00
2023-01-18T09:03:20.406Z,100.00
2023-01-18T09:05:46.741Z,100.00
2023-01-18T09:08:13.098Z,100.00
2023-01-18T09:10:39.408Z,100.00
2023-01-18T09:13:06.091Z,100.00
2023-01-18T09:15:32.426Z,100.00
2023-01-18T09:17:58.977Z,98.17
2023-01-18T09:20:25.949Z,96.83
2023-01-18T09:22:52.300Z,96.12
2023-01-18T09:25:18.617Z,95.57
2023-01-18T09:27:46.672Z,95.86
2023-01-18T09:30:13.038Z,94.42
2023-01-18T09:32:41.159Z,92.62
2023-01-18T09:35:08.758Z,93.16
2023-01-18T09:37:35.095Z,94.97
2023-01-18T09:40:02.378Z,93.61
2023-01-18T09:42:28.727Z,92.30
2023-01-18T09:44:55.115Z,92.31
2023-01-18T09:47:22.053Z,91.72
2023-01-18T09:49:52.298Z,91.69
2023-01-18T09:52:19.583Z,91.67
2023-01-18T09:54:45.984Z,92.33
2023-01-18T09:57:12.323Z,93.12
2023-01-18T09:59:38.621Z,92.97
2023-01-18T10:02:05.029Z,92.73
2023-01-18T10:04:32.940Z,91.74
2023-01-18T10:06:59.327Z,91.68
2023-01-18T10:09:25.759Z,91.72
2023-01-18T10:11:54.395Z,91.52
2023-01-18T10:14:20.724Z,91.99
2023-01-18T10:16:47.083Z,91.75
2023-01-18T10:19:13.438Z,92.31
2023-01-18T10:21:41.928Z,92.54
2023-01-18T10:24:09.459Z,94.14
2023-01-18T10:26:35.803Z,93.94
2023-01-18T10:29:02.164Z,94.45
2023-01-18T10:31:28.865Z,95.49
2023-01-18T10:33:55.204Z,96.29
2023-01-18T10:36:21.516Z,96.85
2023-01-18T10:38:48.021Z,97.75
2023-01-18T10:41:14.343Z,97.69
2023-01-18T10:43:40.663Z,96.88
2023-01-18T10:46:07.024Z,96.70
2023-01-18T10:48:34.064Z,96.04
2023-01-18T10:51:00.501Z,96.39
2023-01-18T10:53:27.448Z,96.09
2023-01-18T10:55:54.391Z,96.16
2023-01-18T10:58:21.952Z,97.06
2023-01-18T11:00:48.630Z,95.62
2023-01-18T11:03:15.062Z,95.64
2023-01-18T11:05:41.487Z,97.25
2023-01-18T11:08:07.812Z,98.06
2023-01-18T11:10:34.167Z,99.38
2023-01-18T11:13:00.767Z,99.13
2023-01-18T11:15:27.468Z,98.48
2023-01-18T11:17:56.026Z,98.77
2023-01-18T11:20:23.316Z,99.17
2023-01-18T11:22:50.584Z,100.00
2023-01-18T11:25:17.344Z,100.00
2023-01-18T11:27:43.682Z,100.00
2023-01-18T11:30:10.149Z,100.00
2023-01-18T11:32:36.444Z,100.00
2023-01-18T11:35:02.977Z,100.00
2023-01-18T11:37:29.359Z,100.00
2023-01-18T11:39:55.685Z,100.00
2023-01-18T11:42:22.020Z,100.00
2023-01-18T11:44:48.661Z,100.00
2023-01-18T11:47:14.991Z,100.00
2023-01-18T11:49:42.541Z,100.00
2023-01-18T11:52:08.849Z,100.00
2023-01-18T11:54:35.251Z,100.00
2023-01-18T11:57:03.101Z,100.00
2023-01-18T11:59:30.426Z,100.00
2023-01-18T12:01:58.514Z,100.00
2023-01-18T12:04:24.852Z,100.00
2023-01-18T12:06:51.229Z,100.00
2023-01-18T12:09:17.557Z,100.00
2023-01-18T12:11:45.619Z,100.00
2023-01-18T12:14:13.613Z,100.00
2023-01-18T12:16:41.702Z,100.00
2023-01-18T12:19:08.128Z,100.00
2023-01-18T12:21:34.454Z,100.00
2023-01-18T12:24:01.097Z,100.00
2023-01-18T12:26:27.512Z,100.00
2023-01-18T12:28:53.827Z,100.00
2023-01-18T12:31:20.199Z,100.00
2023-01-18T12:33:46.767Z,100.00
2023-01-18T12:36:13.163Z,100.00
2023-01-18T12:38:39.512Z,100.00
2023-01-18T12:41:05.821Z,100.00
2023-01-18T12:43:32.191Z,100.00
2023-01-18T12:45:58.587Z,100.00
2023-01-18T12:48:24.912Z,100.00
2023-01-18T12:50:51.335Z,100.00
2023-01-18T12:53:17.663Z,100.00
2023-01-18T12:55:43.957Z,100.00
2023-01-18T12:58:10.276Z,100.00
2023-01-18T13:00:36.729Z,100.00
2023-01-18T13:03:04.084Z,100.00
2023-01-18T13:05:35.179Z,100.00
2023-01-18T13:08:04.595Z,100.00
2023-01-18T13:10:30.927Z,100.00
2023-01-18T13:12:57.261Z,100.00
2023-01-18T13:15:23.661Z,100.00
2023-01-18T13:17:50.038Z,100.00
2023-01-18T13:20:16.354Z,100.00
2023-01-18T13:22:42.664Z,100.00
2023-01-18T13:25:09.591Z,100.00
2023-01-18T13:27:36.021Z,100.00
2023-01-18T13:30:02.356Z,100.00
2023-01-18T13:32:28.801Z,100.00
2023-01-18T13:35:12.952Z,100.00
2023-01-18T13:37:42.253Z,100.00
2023-01-18T13:40:08.645Z,100.00
2023-01-18T13:42:35.091Z,100.00
2023-01-18T13:45:01.433Z,100.00
2023-01-18T13:47:27.801Z,100.00
2023-01-18T13:49:54.110Z,100.00
2023-01-18T13:52:21.366Z,100.00
2023-01-18T13:54:47.696Z,100.00
2023-01-18T13:57:16.786Z,100.00
2023-01-18T13:59:43.172Z,100.00
2023-01-18T14:02:09.611Z,100.00
2023-01-18T14:04:36.373Z,100.00
2023-01-18T14:07:02.683Z,100.00
2023-01-18T14:09:29.022Z,100.00
2023-01-18T14:11:55.396Z,100.00
2023-01-18T14:14:21.769Z,100.00
2023-01-18T14:16:48.161Z,100.00
2023-01-18T14:19:15.851Z,100.00
2023-01-18T14:21:43.871Z,100.00
2023-01-18T14:24:10.543Z,100.00
2023-01-18T14:26:36.903Z,100.00
2023-01-18T14:29:03.697Z,100.00
2023-01-18T14:31:30.023Z,100.00
2023-01-18T14:33:56.483Z,100.00
2023-01-18T14:36:22.856Z,100.00
2023-01-18T14:38:49.228Z,100.00
2023-01-18T14:41:17.006Z,100.00
2023-01-18T14:43:43.395Z,100.00
2023-01-18T14:46:09.749Z,100.00
2023-01-18T14:48:36.151Z,100.00
2023-01-18T14:51:02.674Z,100.00
2023-01-18T14:53:29.428Z,100.00
2023-01-18T14:55:55.737Z,100.00
2023-01-18T14:58:22.064Z,100.00
2023-01-18T15:00:49.084Z,100.00
2023-01-18T15:03:18.851Z,100.00
2023-01-18T15:05:45.169Z,100.00
2023-01-18T15:08:11.584Z,100.00
2023-01-18T15:10:39.301Z,100.00
2023-01-18T15:13:05.669Z,100.00
2023-01-18T15:15:32.034Z,100.00
2023-01-18T15:17:58.738Z,100.00
2023-01-18T15:20:25.274Z,100.00
2023-01-18T15:22:51.662Z,100.00
2023-01-18T15:25:18.031Z,100.00
2023-01-18T15:27:44.339Z,100.00
2023-01-18T15:30:10.657Z,100.00
2023-01-18T15:32:37.480Z,100.00
2023-01-18T15:35:03.910Z,100.00
2023-01-18T15:37:33.788Z,100.00
2023-01-18T15:40:00.351Z,100.00
2023-01-18T15:42:26.679Z,100.00
2023-01-18T15:44:53.038Z,100.00
2023-01-18T15:47:19.337Z,100.00
2023-01-18T15:49:45.690Z,100.00
2023-01-18T15:52:12.013Z,100.00
2023-01-18T15:54:38.327Z,100.00
2023-01-18T15:57:04.630Z,100.00
2023-01-18T15:59:30.997Z,100.00
2023-01-18T16:01:57.478Z,100.00
2023-01-18T16:04:23.877Z,100.00
2023-01-18T16:06:50.230Z,100.00
2023-01-18T16:09:16.637Z,100.00
2023-01-18T16:11:46.795Z,100.00
2023-01-18T16:14:13.164Z,100.00
2023-01-18T16:16:39.651Z,100.00
2023-01-18T16:19:05.989Z,100.00
2023-01-18T16:21:32.802Z,100.00
2023-01-18T16:23:59.287Z,100.00
2023-01-18T16:26:26.826Z,100.00
2023-01-18T16:28:53.136Z,100.00
2023-01-18T16:31:19.474Z,100.00
2023-01-18T16:33:46.827Z,100.00
2023-01-18T16:36:14.090Z,100.00
2023-01-18T16:38:40.407Z,100.00
2023-01-18T16:41:06.709Z,100.00
2023-01-18T16:43:33.032Z,100.00
2023-01-18T16:45:59.424Z,100.00
2023-01-18T16:48:25.873Z,100.00
2023-01-18T16:50:52.577Z,100.00
2023-01-18T16:53:19.010Z,100.00
2023-01-18T16:55:45.349Z,100.00
2023-01-18T16:58:11.920Z,100.00
2023-01-18T17:00:38.224Z,100.00
2023-01-18T17:03:04.634Z,100.00
2023-01-18T17:05:31.288Z,100.00
2023-01-18T17:07:57.873Z,100.00
2023-01-18T17:10:24.357Z,100.00
2023-01-18T17:12:50.705Z,100.00
2023-01-18T17:15:19.289Z,100.00
2023-01-18T17:17:46.310Z,100.00
2023-01-18T17:20:12.634Z,100.00
2023-01-18T17:22:38.975Z,100.00
2023-01-18T17:25:05.317Z,100.00
2023-01-18T17:27:31.696Z,100.00
2023-01-18T17:29:58.015Z,100.00
2023-01-18T17:32:24.309Z,100.00
2023-01-18T17:34:50.636Z,100.00
2023-01-18T17:37:16.944Z,100.00
2023-01-18T17:39:54.886Z,100.00
2023-01-18T17:42:30.424Z,100.00
2023-01-18T17:45:03.049Z,100.00
2023-01-18T17:47:29.883Z,100.00
2023-01-18T17:49:56.731Z,100.00
2023-01-18T17:52:23.136Z,100.00
2023-01-18T17:54:49.453Z,100.00
2023-01-18T17:57:15.807Z,100.00
2023-01-18T17:59:42.103Z,100.00
2023-01-18T18:02:09.304Z,100.00
2023-01-18T18:04:35.648Z,100.00
2023-01-18T18:07:02.016Z,100.00
2023-01-18T18:09:28.354Z,100.00
2023-01-18T18:11:54.775Z,100.00
2023-01-18T18:14:21.430Z,100.00
2023-01-18T18:16:47.786Z,100.00
2023-01-18T18:19:14.877Z,100.00
2023-01-18T18:21:41.263Z,100.00
2023-01-18T18:24:07.608Z,100.00
2023-01-18T18:26:33.916Z,100.00
2023-01-18T18:29:00.855Z,100.00
2023-01-18T18:31:27.917Z,100.00
2023-01-18T18:33:54.330Z,100.00
2023-01-18T18:36:22.203Z,100.00
2023-01-18T18:38:48.518Z,100.00
2023-01-18T18:41:14.832Z,100.00
2023-01-18T18:43:41.148Z,100.00
2023-01-18T18:46:07.575Z,100.00
2023-01-18T18:48:33.965Z,100.00
2023-01-18T18:51:00.332Z,100.00
2023-01-18T18:53:37.459Z,100.00
2023-01-18T18:56:06.931Z,100.00
2023-01-18T18:58:34.105Z,100.00
2023-01-18T19:01:00.441Z,100.00
2023-01-18T19:03:26.792Z,100.00
2023-01-18T19:05:53.113Z,100.00
2023-01-18T19:08:19.426Z,100.00
2023-01-18T19:10:46.322Z,100.00
2023-01-18T19:13:12.705Z,100.00
2023-01-18T19:15:39.051Z,100.00
2023-01-18T19:18:05.802Z,100.00
2023-01-18T19:20:33.378Z,100.00
2023-01-18T19:23:01.532Z,100.00
2023-01-18T19:25:28.108Z,100.00
2023-01-18T19:27:54.753Z,100.00
2023-01-18T19:30:21.309Z,100.00
2023-01-18T19:32:47.728Z,100.00
2023-01-18T19:35:14.075Z,100.00
2023-01-18T19:37:40.505Z,100.00
2023-01-18T19:40:06.836Z,100.00
2023-01-18T19:42:33.145Z,100.00
2023-01-18T19:44:59.581Z,100.00
2023-01-18T19:47:25.913Z,100.00
2023-01-18T19:49:52.571Z,100.00
2023-01-18T19:52:18.919Z,100.00
2023-01-18T19:54:45.258Z,100.00
2023-01-18T19:57:11.617Z,100.00
2023-01-18T19:59:38.911Z,100.00
2023-01-18T20:02:05.788Z,100.00
2023-01-18T20:04:33.911Z,100.00
2023-01-18T20:07:00.582Z,100.00
2023-01-18T20:09:35.087Z,100.00
2023-01-18T20:12:04.875Z,100.00
2023-01-18T20:14:40.951Z,100.00
2023-01-18T20:17:08.059Z,100.00
2023-01-18T20:19:34.425Z,100.00
2023-01-18T20:22:02.688Z,100.00
2023-01-18T20:24:29.130Z,100.00
2023-01-18T20:27:01.633Z,100.00
2023-01-18T20:29:33.550Z,100.00
2023-01-18T20:32:13.451Z,100.00
2023-01-18T20:34:44.545Z,100.00
2023-01-18T20:37:11.222Z,100.00
2023-01-18T20:39:37.809Z,100.00
2023-01-18T20:42:04.286Z,100.00
2023-01-18T20:44:30.595Z,100.00
2023-01-18T20:46:57.478Z,100.00
2023-01-18T20:49:33.232Z,100.00
2023-01-18T20:52:03.841Z,100.00
2023-01-18T20:54:30.189Z,100.00
2023-01-18T20:56:56.561Z,100.00
2023-01-18T20:59:22.944Z,100.00
2023-01-18T21:01:49.514Z,100.00
2023-01-18T21:04:15.912Z,100.00
2023-01-18T21:06:44.883Z,100.00
2023-01-18T21:09:11.206Z,100.00
2023-01-18T21:11:37.945Z,100.00
2023-01-18T21:14:04.292Z,100.00
2023-01-18T21:16:30.660Z,100.00
2023-01-18T21:18:57.044Z,100.00
2023-01-18T21:21:23.452Z,100.00
2023-01-18T21:23:49.843Z,100.00
2023-01-18T21:26:16.174Z,100.00
2023-01-18T21:28:42.471Z,100.00
2023-01-18T21:31:08.843Z,100.00
2023-01-18T21:33:35.220Z,100.00
2023-01-18T21:36:01.582Z,100.00
2023-01-18T21:38:27.930Z,100.00
2023-01-18T21:40:54.248Z,100.00
2023-01-18T21:43:39.434Z,100.00
2023-01-18T21:46:05.907Z,100.00
2023-01-18T21:48:32.277Z,100.00
2023-01-18T21:51:17.372Z,100.00
2023-01-18T21:54:02.521Z,100.00
2023-01-18T21:56:28.849Z,100.00
2023-01-18T21:58:56.105Z,100.00
2023-01-18T22:01:22.569Z,100.00
2023-01-18T22:04:07.821Z,100.00
2023-01-18T22:06:34.127Z,100.00
2023-01-18T22:09:00.470Z,100.00
2023-01-18T22:11:26.788Z,100.00
2023-01-18T22:13:53.108Z,100.00
2023-01-18T22:16:19.499Z,100.00
2023-01-18T22:18:45.825Z,100.00
2023-01-18T22:21:12.127Z,100.00
2023-01-18T22:23:38.460Z,100.00
2023-01-18T22:26:04.938Z,99.88
2023-01-18T22:28:31.257Z,100.00
2023-01-18T22:30:58.872Z,99.43
2023-01-18T22:33:25.206Z,100.00
2023-01-18T22:35:51.537Z,99.65
2023-01-18T22:38:17.867Z,98.54
2023-01-18T22:40:44.180Z,98.90
2023-01-18T22:43:10.471Z,98.78
2023-01-18T22:45:36.909Z,98.13
2023-01-18T22:48:03.403Z,98.32
2023-01-18T22:50:30.045Z,98.27
2023-01-18T22:52:56.362Z,98.63
2023-01-18T22:55:22.766Z,97.86
2023-01-18T22:57:49.081Z,97.90
2023-01-18T23:00:15.397Z,97.16
2023-01-18T23:02:41.729Z,97.16
2023-01-18T23:05:08.037Z,97.32
2023-01-18T23:07:34.347Z,95.48
2023-01-18T23:10:00.812Z,96.07
2023-01-18T23:12:27.240Z,95.54
2023-01-18T23:15:12.477Z,96.26
2023-01-18T23:17:38.789Z,96.41
2023-01-18T23:20:05.161Z,96.27
2023-01-18T23:22:31.491Z,97.07
2023-01-18T23:24:57.819Z,96.26
2023-01-18T23:27:24.123Z,96.08
2023-01-18T23:29:56.603Z,95.67
2023-01-18T23:32:26.605Z,96.27
2023-01-18T23:34:52.944Z,96.09
2023-01-18T23:37:19.269Z,95.63
2023-01-18T23:40:04.444Z,97.20
2023-01-18T23:42:49.554Z,96.88
2023-01-18T23:45:34.416Z,96.89
2023-01-18T23:48:19.248Z,98.69
2023-01-18T23:51:04.166Z,99.19
2023-01-18T23:53:49.397Z,100.00
2023-01-18T23:56:15.705Z,100.00
2023-01-18T23:58:42.021Z,100.00
